createdAt,value
2022-08-04T00:02:24.128Z,100385.31
2022-08-04T00:05:05.368Z,100386.37
2022-08-04T00:07:52.592Z,100381.81
2022-08-04T00:10:22.488Z,100368.19
2022-08-04T00:12:52.050Z,100392.63
2022-08-04T00:15:20.029Z,100386.13
2022-08-04T00:17:54.076Z,100379.00
2022-08-04T00:20:22.032Z,100379.34
2022-08-04T00:22:52.199Z,100379.91
2022-08-04T00:25:19.614Z,100380.16
2022-08-04T00:27:47.045Z,100386.06
2022-08-04T00:30:13.767Z,100379.00
2022-08-04T00:32:43.813Z,100377.62
2022-08-04T00:35:14.113Z,100390.31
2022-08-04T00:37:44.869Z,100397.56
2022-08-04T00:40:41.079Z,100383.47
2022-08-04T00:43:43.233Z,100400.06
2022-08-04T00:46:24.809Z,100397.13
2022-08-04T00:49:28.840Z,100393.00
2022-08-04T00:52:32.363Z,100393.37
2022-08-04T00:55:12.860Z,100397.94
2022-08-04T00:58:18.865Z,100397.13
2022-08-04T01:00:53.484Z,100409.09
2022-08-04T01:03:29.774Z,100404.25
2022-08-04T01:06:16.818Z,100405.44
2022-08-04T01:08:50.331Z,100412.22
2022-08-04T01:11:23.266Z,100406.00
2022-08-04T01:14:06.348Z,100405.19
2022-08-04T01:16:39.827Z,100403.88
2022-08-04T01:19:27.814Z,100405.19
2022-08-04T01:22:04.261Z,100410.44
2022-08-04T01:24:43.328Z,100413.13
2022-08-04T01:27:26.237Z,100415.03
2022-08-04T01:29:58.350Z,100421.50
2022-08-04T01:32:53.455Z,100419.87
2022-08-04T01:35:47.565Z,100421.25
2022-08-04T01:38:34.453Z,100411.88
2022-08-04T01:41:13.229Z,100419.28
2022-08-04T01:43:45.456Z,100428.69
2022-08-04T01:46:17.394Z,100420.00
2022-08-04T01:48:47.770Z,100420.25
2022-08-04T01:51:14.917Z,100422.63
2022-08-04T01:53:43.785Z,100414.16
2022-08-04T01:56:11.957Z,100420.41
2022-08-04T01:58:40.430Z,100420.66
2022-08-04T02:01:12.605Z,100415.47
2022-08-04T02:04:19.752Z,100420.88
2022-08-04T02:06:32.996Z,100408.88
2022-08-04T02:09:32.314Z,100402.78
2022-08-04T02:12:43.888Z,100410.16
2022-08-04T02:15:16.555Z,100417.47
2022-08-04T02:18:00.576Z,100407.38
2022-08-04T02:20:43.480Z,100409.25
2022-08-04T02:23:15.379Z,100407.63
2022-08-04T02:26:06.943Z,100398.00
2022-08-04T02:28:45.322Z,100407.03
2022-08-04T02:31:32.487Z,100405.66
2022-08-04T02:34:24.210Z,100407.03
2022-08-04T02:36:52.411Z,100412.44
2022-08-04T02:39:21.022Z,100404.56
2022-08-04T02:41:49.525Z,100402.69
2022-08-04T02:44:28.259Z,100390.16
2022-08-04T02:46:55.441Z,100406.78
2022-08-04T02:49:23.322Z,100404.31
2022-08-04T02:51:55.211Z,100411.62
2022-08-04T02:54:33.918Z,100411.38
2022-08-04T02:57:02.503Z,100408.66
2022-08-04T02:59:42.526Z,100407.03
2022-08-04T03:02:09.240Z,100400.88
2022-08-04T03:04:51.095Z,100395.72
2022-08-04T03:07:39.117Z,100401.25
2022-08-04T03:10:38.504Z,100405.12
2022-08-04T03:13:06.051Z,100398.78
2022-08-04T03:15:42.365Z,100392.91
2022-08-04T03:18:33.816Z,100386.56
2022-08-04T03:21:26.352Z,100398.06
2022-08-04T03:24:19.599Z,100399.34
2022-08-04T03:27:07.659Z,100402.31
2022-08-04T03:29:55.366Z,100387.53
2022-08-04T03:32:37.575Z,100392.94
2022-08-04T03:35:13.621Z,100401.12
2022-08-04T03:38:13.804Z,100406.28
2022-08-04T03:41:02.077Z,100400.00
2022-08-04T03:43:57.516Z,100410.41
2022-08-04T03:46:29.045Z,100405.00
2022-08-04T03:49:40.634Z,100403.94
2022-08-04T03:52:32.051Z,100410.06
2022-08-04T03:55:17.564Z,100403.09
2022-08-04T03:58:21.882Z,100409.66
2022-08-04T04:01:03.417Z,100415.16
2022-08-04T04:03:49.419Z,100418.78
2022-08-04T04:06:57.611Z,100412.16
2022-08-04T04:09:56.717Z,100417.19
2022-08-04T04:12:35.673Z,100411.28
2022-08-04T04:15:24.049Z,100415.16
2022-08-04T04:18:17.130Z,100414.16
2022-08-04T04:21:08.145Z,100419.09
2022-08-04T04:23:52.455Z,100419.66
2022-08-04T04:26:59.306Z,100418.00
2022-08-04T04:29:40.799Z,100426.97
2022-08-04T04:32:24.365Z,100421.19
2022-08-04T04:35:18.843Z,100416.78
2022-08-04T04:38:20.349Z,100423.34
2022-08-04T04:41:08.812Z,100427.44
2022-08-04T04:44:00.585Z,100426.38
2022-08-04T04:46:33.696Z,100433.44
2022-08-04T04:49:25.153Z,100413.25
2022-08-04T04:52:18.023Z,100422.19
2022-08-04T04:54:56.015Z,100427.69
2022-08-04T04:57:54.481Z,100433.84
2022-08-04T05:00:13.670Z,100431.38
2022-08-04T05:03:01.696Z,100430.78
2022-08-04T05:05:45.399Z,100413.87
2022-08-04T05:08:43.028Z,100425.31
2022-08-04T05:11:27.715Z,100431.88
2022-08-04T05:14:38.768Z,100417.75
2022-08-04T05:16:51.272Z,100423.66
2022-08-04T05:19:37.994Z,100433.75
2022-08-04T05:22:14.219Z,100427.53
2022-08-04T05:24:44.608Z,100436.81
2022-08-04T05:27:20.585Z,100436.06
2022-08-04T05:29:53.263Z,100441.22
2022-08-04T05:32:24.736Z,100443.94
2022-08-04T05:35:05.896Z,100444.44
2022-08-04T05:37:34.929Z,100455.19
2022-08-04T05:40:07.139Z,100443.94
2022-08-04T05:42:38.298Z,100455.69
2022-08-04T05:45:06.928Z,100458.16
2022-08-04T05:47:35.159Z,100452.47
2022-08-04T05:50:06.663Z,100457.16
2022-08-04T05:52:34.661Z,100458.88
2022-08-04T05:55:02.694Z,100458.25
2022-08-04T05:57:30.431Z,100450.34
2022-08-04T06:00:00.186Z,100442.47
2022-08-04T06:02:28.406Z,100452.41
2022-08-04T06:04:57.879Z,100454.03
2022-08-04T06:07:26.561Z,100455.59
2022-08-04T06:09:53.839Z,100461.47
2022-08-04T06:12:31.086Z,100462.94
2022-08-04T06:15:00.200Z,100453.56
2022-08-04T06:18:33.752Z,100451.81
2022-08-04T06:20:22.963Z,100460.56
2022-08-04T06:22:55.478Z,100460.75
2022-08-04T06:25:33.200Z,100460.00
2022-08-04T06:28:02.337Z,100460.31
2022-08-04T06:30:32.400Z,100461.41
2022-08-04T06:33:04.965Z,100464.66
2022-08-04T06:35:33.931Z,100473.88
2022-08-04T06:38:02.171Z,100461.31
2022-08-04T06:40:33.379Z,100476.03
2022-08-04T06:43:03.561Z,100456.34
2022-08-04T06:45:31.858Z,100461.81
2022-08-04T06:48:00.887Z,100466.19
2022-08-04T06:51:28.656Z,100458.75
2022-08-04T06:53:15.965Z,100461.38
2022-08-04T06:55:45.130Z,100471.00
2022-08-04T06:58:12.857Z,100463.72
2022-08-04T07:00:41.712Z,100457.87
2022-08-04T07:03:09.505Z,100462.53
2022-08-04T07:05:36.721Z,100456.59
2022-08-04T07:08:04.693Z,100449.81
2022-08-04T07:10:31.842Z,100452.34
2022-08-04T07:13:01.808Z,100448.09
2022-08-04T07:15:29.026Z,100452.19
2022-08-04T07:18:01.863Z,100438.81
2022-08-04T07:20:30.353Z,100451.94
2022-08-04T07:23:07.388Z,100454.66
2022-08-04T07:26:11.148Z,100450.37
2022-08-04T07:28:26.829Z,100454.22
2022-08-04T07:30:55.720Z,100447.72
2022-08-04T07:33:23.974Z,100449.25
2022-08-04T07:36:08.382Z,100449.81
2022-08-04T07:38:48.235Z,100449.41
2022-08-04T07:41:40.687Z,100436.69
2022-08-04T07:44:08.843Z,100442.66
2022-08-04T07:46:36.790Z,100453.53
2022-08-04T07:49:04.592Z,100461.66
2022-08-04T07:51:32.902Z,100452.38
2022-08-04T07:54:00.441Z,100453.50
2022-08-04T07:56:28.624Z,100440.75
2022-08-04T07:58:56.055Z,100446.53
2022-08-04T08:01:26.937Z,100450.69
2022-08-04T08:03:56.987Z,100461.63
2022-08-04T08:06:32.648Z,100461.31
2022-08-04T08:09:12.952Z,100469.94
2022-08-04T08:12:38.226Z,100458.47
2022-08-04T08:14:35.516Z,100460.37
2022-08-04T08:17:03.295Z,100451.38
2022-08-04T08:19:34.749Z,100449.22
2022-08-04T08:22:02.679Z,100441.09
2022-08-04T08:24:30.558Z,100448.50
2022-08-04T08:26:57.919Z,100458.69
2022-08-04T08:29:26.421Z,100460.13
2022-08-04T08:31:56.394Z,100459.62
2022-08-04T08:34:28.197Z,100456.69
2022-08-04T08:37:17.868Z,100446.34
2022-08-04T08:40:03.256Z,100456.78
2022-08-04T08:42:47.787Z,100458.38
2022-08-04T08:45:17.915Z,100458.06
2022-08-04T08:48:12.147Z,100445.78
2022-08-04T08:50:48.273Z,100441.69
2022-08-04T08:53:32.185Z,100430.78
2022-08-04T08:56:13.854Z,100452.84
2022-08-04T08:58:49.940Z,100452.28
2022-08-04T09:01:44.352Z,100453.38
2022-08-04T09:04:46.734Z,100447.09
2022-08-04T09:07:35.152Z,100439.16
2022-08-04T09:10:19.130Z,100451.47
2022-08-04T09:13:08.670Z,100447.41
2022-08-04T09:15:54.316Z,100450.41
2022-08-04T09:18:24.355Z,100445.31
2022-08-04T09:21:06.442Z,100456.78
2022-08-04T09:24:03.563Z,100444.53
2022-08-04T09:27:01.269Z,100439.09
2022-08-04T09:29:43.148Z,100441.28
2022-08-04T09:32:29.218Z,100441.56
2022-08-04T09:35:33.380Z,100439.09
2022-08-04T09:38:22.113Z,100447.53
2022-08-04T09:40:58.945Z,100436.13
2022-08-04T09:43:59.122Z,100440.47
2022-08-04T09:46:51.311Z,100445.09
2022-08-04T09:49:23.309Z,100442.66
2022-08-04T09:51:57.858Z,100441.03
2022-08-04T09:54:33.568Z,100424.69
2022-08-04T09:57:22.525Z,100443.22
2022-08-04T10:00:06.118Z,100447.06
2022-08-04T10:02:42.696Z,100447.09
2022-08-04T10:05:21.597Z,100437.00
2022-08-04T10:08:15.416Z,100440.81
2022-08-04T10:11:21.430Z,100412.22
2022-08-04T10:14:05.710Z,100441.34
2022-08-04T10:16:53.946Z,100433.72
2022-08-04T10:19:28.836Z,100431.31
2022-08-04T10:22:29.362Z,100447.91
2022-08-04T10:25:04.937Z,100440.84
2022-08-04T10:28:00.257Z,100438.09
2022-08-04T10:30:35.665Z,100438.91
2022-08-04T10:33:21.460Z,100427.75
2022-08-04T10:35:53.977Z,100441.66
2022-08-04T10:38:42.763Z,100435.66
2022-08-04T10:41:30.341Z,100432.09
2022-08-04T10:44:16.265Z,100432.12
2022-08-04T10:46:56.188Z,100412.50
2022-08-04T10:49:38.095Z,100429.66
2022-08-04T10:52:11.335Z,100413.84
2022-08-04T10:54:55.826Z,100425.28
2022-08-04T10:57:40.681Z,100416.00
2022-08-04T11:00:19.901Z,100408.09
2022-08-04T11:02:55.872Z,100410.00
2022-08-04T11:05:44.140Z,100410.81
2022-08-04T11:08:31.874Z,100404.84
2022-08-04T11:11:02.797Z,100409.72
2022-08-04T11:13:34.328Z,100411.91
2022-08-04T11:16:05.831Z,100398.31
2022-08-04T11:19:01.324Z,100403.22
2022-08-04T11:21:34.067Z,100398.59
2022-08-04T11:24:26.292Z,100407.28
2022-08-04T11:27:00.042Z,100403.19
2022-08-04T11:29:32.484Z,100399.37
2022-08-04T11:32:02.659Z,100402.06
2022-08-04T11:34:30.813Z,100406.19
2022-08-04T11:37:03.477Z,100394.22
2022-08-04T11:39:43.746Z,100398.88
2022-08-04T11:42:18.758Z,100396.16
2022-08-04T11:44:52.520Z,100389.63
2022-08-04T11:47:27.286Z,100381.44
2022-08-04T11:50:30.196Z,100394.53
2022-08-04T11:52:58.261Z,100387.72
2022-08-04T11:55:28.096Z,100378.97
2022-08-04T11:57:55.326Z,100372.69
2022-08-04T12:00:24.737Z,100379.56
2022-08-04T12:03:09.766Z,100376.00
2022-08-04T12:05:47.004Z,100376.28
2022-08-04T12:08:28.841Z,100382.81
2022-08-04T12:11:21.551Z,100378.44
2022-08-04T12:14:19.489Z,100386.37
2022-08-04T12:16:58.215Z,100406.22
2022-08-04T12:19:52.160Z,100417.34
2022-08-04T12:22:25.109Z,100418.88
2022-08-04T12:25:03.940Z,100427.06
2022-08-04T12:27:35.200Z,100414.62
2022-08-04T12:31:02.074Z,100421.31
2022-08-04T12:33:10.783Z,100429.16
2022-08-04T12:36:10.060Z,100405.38
2022-08-04T12:38:47.225Z,100388.16
2022-08-04T12:41:19.261Z,100393.84
2022-08-04T12:43:47.342Z,100374.31
2022-08-04T12:46:24.671Z,100365.72
2022-08-04T12:48:52.146Z,100372.84
2022-08-04T12:52:06.504Z,100371.00
2022-08-04T12:54:10.171Z,100371.59
2022-08-04T12:56:38.683Z,100377.13
2022-08-04T12:59:13.035Z,100374.72
2022-08-04T13:02:07.187Z,100371.50
2022-08-04T13:04:34.660Z,100363.94
2022-08-04T13:07:07.768Z,100357.97
2022-08-04T13:09:37.515Z,100377.28
2022-08-04T13:12:32.355Z,100370.50
2022-08-04T13:15:10.933Z,100377.31
2022-08-04T13:18:00.332Z,100393.44
2022-08-04T13:20:32.742Z,100380.38
2022-08-04T13:23:11.602Z,100394.28
2022-08-04T13:26:43.615Z,100397.31
2022-08-04T13:28:34.437Z,100395.16
2022-08-04T13:31:05.751Z,100391.59
2022-08-04T13:33:35.971Z,100405.50
2022-08-04T13:36:05.354Z,100399.78
2022-08-04T13:38:33.859Z,100390.53
2022-08-04T13:41:04.548Z,100379.03
2022-08-04T13:44:16.152Z,100397.03
2022-08-04T13:46:28.860Z,100392.13
2022-08-04T13:49:25.833Z,100394.22
2022-08-04T13:51:57.350Z,100390.66
2022-08-04T13:54:35.134Z,100393.09
2022-08-04T13:57:44.280Z,100392.00
2022-08-04T14:00:12.080Z,100395.03
2022-08-04T14:02:44.411Z,100375.16
2022-08-04T14:05:19.064Z,100390.44
2022-08-04T14:07:50.806Z,100397.00
2022-08-04T14:10:17.979Z,100386.97
2022-08-04T14:12:47.206Z,100383.44
2022-08-04T14:16:01.432Z,100373.94
2022-08-04T14:18:23.634Z,100373.66
2022-08-04T14:21:01.798Z,100369.56
2022-08-04T14:23:33.334Z,100367.44
2022-08-04T14:26:00.325Z,100363.09
2022-08-04T14:29:08.603Z,100351.91
2022-08-04T14:31:21.678Z,100364.16
2022-08-04T14:34:01.877Z,100369.34
2022-08-04T14:37:04.674Z,100362.28
2022-08-04T14:40:17.919Z,100359.84
2022-08-04T14:42:55.430Z,100356.31
2022-08-04T14:45:54.663Z,100359.03
2022-08-04T14:48:22.499Z,100350.06
2022-08-04T14:50:51.147Z,100351.16
2022-08-04T14:53:21.816Z,100336.16
2022-08-04T14:55:51.549Z,100342.94
2022-08-04T14:58:35.055Z,100351.69
2022-08-04T15:01:11.792Z,100352.75
2022-08-04T15:03:51.731Z,100358.69
2022-08-04T15:06:26.508Z,100369.31
2022-08-04T15:08:56.369Z,100378.53
2022-08-04T15:11:24.709Z,100386.91
2022-08-04T15:13:53.198Z,100386.88
2022-08-04T15:16:21.626Z,100383.03
2022-08-04T15:18:49.449Z,100379.19
2022-08-04T15:21:17.205Z,100385.16
2022-08-04T15:23:44.299Z,100372.63
2022-08-04T15:26:22.044Z,100366.91
2022-08-04T15:29:02.055Z,100369.31
2022-08-04T15:32:03.853Z,100370.97
2022-08-04T15:34:23.720Z,100365.47
2022-08-04T15:36:56.396Z,100364.88
2022-08-04T15:39:44.924Z,100344.72
2022-08-04T15:42:21.644Z,100359.97
2022-08-04T15:44:51.552Z,100361.28
2022-08-04T15:47:18.700Z,100361.78
2022-08-04T15:49:47.112Z,100366.59
2022-08-04T15:52:16.803Z,100353.19
2022-08-04T15:54:51.973Z,100361.09
2022-08-04T15:58:01.217Z,100367.34
2022-08-04T16:00:28.556Z,100374.38
2022-08-04T16:02:55.980Z,100359.06
2022-08-04T16:05:23.482Z,100360.44
2022-08-04T16:07:54.707Z,100350.62
2022-08-04T16:10:48.608Z,100363.69
2022-08-04T16:13:19.689Z,100367.78
2022-08-04T16:16:03.138Z,100366.41
2022-08-04T16:18:30.325Z,100367.69
2022-08-04T16:21:03.912Z,100377.78
2022-08-04T16:24:05.915Z,100373.63
2022-08-04T16:26:36.565Z,100383.47
2022-08-04T16:29:32.538Z,100388.88
2022-08-04T16:32:05.889Z,100388.88
2022-08-04T16:34:49.188Z,100389.97
2022-08-04T16:37:19.243Z,100379.59
2022-08-04T16:39:51.314Z,100372.50
2022-08-04T16:42:28.041Z,100384.25
2022-08-04T16:45:06.877Z,100379.63
2022-08-04T16:47:49.217Z,100383.44
2022-08-04T16:50:15.947Z,100372.50
2022-08-04T16:52:44.969Z,100365.44
2022-08-04T16:55:14.302Z,100377.16
2022-08-04T16:57:41.425Z,100376.91
2022-08-04T17:00:09.342Z,100373.63
2022-08-04T17:02:36.266Z,100364.94
2022-08-04T17:05:39.456Z,100368.22
2022-08-04T17:10:56.015Z,100368.22
2022-08-04T17:14:02.784Z,100371.19
2022-08-04T17:16:29.516Z,100382.03
2022-08-04T17:18:57.794Z,100372.22
2022-08-04T17:21:33.180Z,100373.56
2022-08-04T17:24:15.111Z,100383.37
2022-08-04T17:26:45.538Z,100385.53
2022-08-04T17:29:43.234Z,100376.78
2022-08-04T17:32:21.541Z,100375.97
2022-08-04T17:34:50.775Z,100381.94
2022-08-04T17:37:38.932Z,100376.22
2022-08-04T17:40:11.075Z,100381.69
2022-08-04T17:42:39.900Z,100383.84
2022-08-04T17:48:09.369Z,100386.03
2022-08-04T17:50:36.721Z,100382.75
2022-08-04T17:53:12.018Z,100386.56
2022-08-04T17:55:49.621Z,100374.03
2022-08-04T17:58:23.152Z,100388.69
2022-08-04T18:01:23.210Z,100388.69
2022-08-04T18:03:52.898Z,100395.22
2022-08-04T18:06:22.373Z,100373.44
2022-08-04T18:08:57.755Z,100387.84
2022-08-04T18:11:29.810Z,100391.38
2022-08-04T18:14:09.196Z,100385.91
2022-08-04T18:16:45.630Z,100386.72
2022-08-04T18:19:15.389Z,100384.00
2022-08-04T18:21:46.494Z,100372.53
2022-08-04T18:24:35.291Z,100381.53
2022-08-04T18:27:17.486Z,100379.28
2022-08-04T18:30:15.340Z,100394.22
2022-08-04T18:32:33.790Z,100390.72
2022-08-04T18:35:05.697Z,100382.50
2022-08-04T18:38:06.624Z,100390.63
2022-08-04T18:43:14.667Z,100386.81
2022-08-04T18:45:42.147Z,100377.22
2022-08-04T18:48:18.294Z,100389.19
2022-08-04T18:51:10.182Z,100394.03
2022-08-04T18:53:34.826Z,100388.88
2022-08-04T18:56:06.108Z,100393.50
2022-08-04T18:58:43.043Z,100395.34
2022-08-04T19:01:14.015Z,100388.06
2022-08-04T19:03:44.193Z,100380.16
2022-08-04T19:06:13.857Z,100387.22
2022-08-04T19:08:45.171Z,100379.03
2022-08-04T19:11:37.204Z,100383.97
2022-08-04T19:14:02.213Z,100383.13
2022-08-04T19:16:31.019Z,100380.16
2022-08-04T19:19:00.473Z,100379.34
2022-08-04T19:22:01.498Z,100388.06
2022-08-04T19:24:33.486Z,100383.44
2022-08-04T19:27:06.813Z,100378.56
2022-08-04T19:29:41.016Z,100388.38
2022-08-04T19:32:14.734Z,100382.16
2022-08-04T19:34:47.304Z,100377.53
2022-08-04T19:37:56.158Z,100377.28
2022-08-04T19:40:04.594Z,100368.34
2022-08-04T19:42:31.913Z,100363.19
2022-08-04T19:44:58.665Z,100353.03
2022-08-04T19:48:15.848Z,100354.53
2022-08-04T19:50:14.069Z,100353.88
2022-08-04T19:52:51.453Z,100360.75
2022-08-04T19:55:22.358Z,100355.34
2022-08-04T19:57:50.433Z,100349.34
2022-08-04T20:00:33.888Z,100357.78
2022-08-04T20:03:02.998Z,100346.28
2022-08-04T20:05:52.630Z,100357.97
2022-08-04T20:08:17.501Z,100366.44
2022-08-04T20:10:51.524Z,100366.13
2022-08-04T20:13:20.887Z,100367.97
2022-08-04T20:15:55.438Z,100381.53
2022-08-04T20:18:36.397Z,100375.56
2022-08-04T20:21:19.366Z,100370.31
2022-08-04T20:23:52.773Z,100364.84
2022-08-04T20:26:20.147Z,100361.00
2022-08-04T20:28:51.803Z,100351.50
2022-08-04T20:31:19.876Z,100366.94
2022-08-04T20:33:53.801Z,100369.34
2022-08-04T20:36:22.759Z,100376.09
2022-08-04T20:38:52.951Z,100356.97
2022-08-04T20:41:21.653Z,100365.87
2022-08-04T20:43:49.654Z,100385.19
2022-08-04T20:46:29.691Z,100365.06
2022-08-04T20:48:58.405Z,100377.47
2022-08-04T20:51:31.782Z,100373.63
2022-08-04T20:54:02.200Z,100372.00
2022-08-04T20:56:31.239Z,100378.97
2022-08-04T20:59:01.299Z,100374.06
2022-08-04T21:01:35.156Z,100363.69
2022-08-04T21:04:27.780Z,100374.81
2022-08-04T21:06:57.797Z,100372.34
2022-08-04T21:09:37.449Z,100374.69
2022-08-04T21:12:10.689Z,100381.50
2022-08-04T21:14:53.906Z,100373.78
2022-08-04T21:17:21.434Z,100384.94
2022-08-04T21:20:12.713Z,100381.91
2022-08-04T21:22:40.570Z,100388.66
2022-08-04T21:25:15.742Z,100385.00
2022-08-04T21:27:44.371Z,100380.66
2022-08-04T21:30:24.026Z,100383.88
2022-08-04T21:32:55.440Z,100366.16
2022-08-04T21:35:37.022Z,100378.94
2022-08-04T21:38:13.993Z,100375.69
2022-08-04T21:40:54.711Z,100370.66
2022-08-04T21:43:23.467Z,100379.13
2022-08-04T21:45:55.736Z,100383.88
2022-08-04T21:48:27.611Z,100392.31
2022-08-04T21:50:55.327Z,100406.34
2022-08-04T21:53:22.646Z,100392.66
2022-08-04T21:56:05.638Z,100387.50
2022-08-04T21:58:37.340Z,100391.03
2022-08-04T22:01:05.945Z,100381.75
2022-08-04T22:03:52.644Z,100383.56
2022-08-04T22:06:28.195Z,100390.31
2022-08-04T22:08:57.557Z,100366.59
2022-08-04T22:11:44.240Z,100376.34
2022-08-04T22:14:16.590Z,100380.13
2022-08-04T22:16:45.308Z,100373.78
2022-08-04T22:19:13.678Z,100364.53
2022-08-04T22:21:46.682Z,100370.44
2022-08-04T22:24:14.416Z,100362.56
2022-08-04T22:26:41.680Z,100361.91
2022-08-04T22:29:14.417Z,100356.00
2022-08-04T22:31:53.260Z,100362.47
2022-08-04T22:34:24.286Z,100358.34
2022-08-04T22:36:52.591Z,100344.75
2022-08-04T22:39:23.449Z,100332.78
2022-08-04T22:42:04.119Z,100351.31
2022-08-04T22:44:33.253Z,100337.38
2022-08-04T22:47:01.221Z,100343.03
2022-08-04T22:49:31.483Z,100347.94
2022-08-04T22:51:59.157Z,100332.66
2022-08-04T22:54:28.465Z,100344.44
2022-08-04T22:56:56.855Z,100335.97
2022-08-04T22:59:24.132Z,100350.56
2022-08-04T23:02:00.312Z,100347.62
2022-08-04T23:04:33.076Z,100342.56
2022-08-04T23:07:08.947Z,100362.41
2022-08-04T23:09:49.193Z,100364.44
2022-08-04T23:12:27.022Z,100366.19
2022-08-04T23:14:58.589Z,100364.31
2022-08-04T23:17:27.348Z,100367.50
2022-08-04T23:19:58.161Z,100358.97
2022-08-04T23:22:41.034Z,100375.25
2022-08-04T23:25:16.338Z,100383.63
2022-08-04T23:27:48.104Z,100370.50
2022-08-04T23:30:19.508Z,100376.56
2022-08-04T23:32:46.516Z,100375.75
2022-08-04T23:35:14.983Z,100380.34
2022-08-04T23:37:57.323Z,100375.75
2022-08-04T23:40:33.591Z,100375.75
2022-08-04T23:43:17.182Z,100389.03
2022-08-04T23:46:07.427Z,100373.28
2022-08-04T23:48:36.869Z,100382.31
2022-08-04T23:51:13.635Z,100391.25
2022-08-04T23:54:02.556Z,100388.78
2022-08-04T23:56:28.667Z,100385.50
2022-08-04T23:58:56.362Z,100380.09
